Pudsey, United Kingdom
Current Conditions -  °F | °C
As of 12:50 AM on Sunday 21 Dec 2014 (Local Time) from EGNM Reporting Station
Rain Showers Rain Showers  
Wind Chill:   Ceiling: Unl
Heat Index:   Visibility: 6mi
Dew Point:   Wind: 17mph
Humidity: 87%   Direction: 250°WSW
Pressure: 30.24"   Gusts: NA
Location:  53.8°N, 1.66°W
Report Text: EGNM 210050Z 25015KT 9999 -SHRA SCT019 06/04 Q1024
Loading
Personal Weather Stations






























Interactive Weather Map New forecast layout! Learn more

10-Day Weather Forecast

Advertisements
Track Severe Weather on mobile